sensor_id;sensor_type;location;lat;lon;timestamp;temperature;humidity
67893;DHT22;54688;52.376;16.744;2023-04-07T00:01:14;4.3;61.2
67893;DHT22;54688;52.376;16.744;2023-04-07T00:04:17;4.3;62.8
67893;DHT22;54688;52.376;16.744;2023-04-07T00:07:21;4.2;62.9
67893;DHT22;54688;52.376;16.744;2023-04-07T00:10:23;4.1;62.3
67893;DHT22;54688;52.376;16.744;2023-04-07T00:13:26;4;64.4
67893;DHT22;54688;52.376;16.744;2023-04-07T00:16:28;4;65.2
67893;DHT22;54688;52.376;16.744;2023-04-07T00:19:31;3.9;64.3
67893;DHT22;54688;52.376;16.744;2023-04-07T00:22:33;3.8;63.7
67893;DHT22;54688;52.376;16.744;2023-04-07T00:25:36;3.7;62.7
67893;DHT22;54688;52.376;16.744;2023-04-07T00:28:38;3.6;63.2
67893;DHT22;54688;52.376;16.744;2023-04-07T00:31:40;3.6;64.8
67893;DHT22;54688;52.376;16.744;2023-04-07T00:34:42;3.6;65.5
67893;DHT22;54688;52.376;16.744;2023-04-07T00:37:44;3.5;64.8
67893;DHT22;54688;52.376;16.744;2023-04-07T00:40:47;3.4;65.6
67893;DHT22;54688;52.376;16.744;2023-04-07T00:43:50;3.4;66.3
67893;DHT22;54688;52.376;16.744;2023-04-07T00:46:52;3.4;66.4
67893;DHT22;54688;52.376;16.744;2023-04-07T00:49:54;3.4;66.8
67893;DHT22;54688;52.376;16.744;2023-04-07T00:52:56;3.3;67.3
67893;DHT22;54688;52.376;16.744;2023-04-07T00:55:58;3.3;67.8
67893;DHT22;54688;52.376;16.744;2023-04-07T00:59:01;3.3;67.5
67893;DHT22;54688;52.376;16.744;2023-04-07T01:02:06;3.2;68.5
67893;DHT22;54688;52.376;16.744;2023-04-07T01:05:13;3.2;69.1
67893;DHT22;54688;52.376;16.744;2023-04-07T01:08:20;3.1;69.3
67893;DHT22;54688;52.376;16.744;2023-04-07T01:11:29;3.1;70
67893;DHT22;54688;52.376;16.744;2023-04-07T01:14:39;3;70.8
67893;DHT22;54688;52.376;16.744;2023-04-07T01:17:48;3;71.1
67893;DHT22;54688;52.376;16.744;2023-04-07T01:20:52;2.9;71.7
67893;DHT22;54688;52.376;16.744;2023-04-07T01:24:02;2.8;72
67893;DHT22;54688;52.376;16.744;2023-04-07T01:27:20;2.7;72.9
67893;DHT22;54688;52.376;16.744;2023-04-07T01:30:33;2.6;73.8
67893;DHT22;54688;52.376;16.744;2023-04-07T01:33:39;2.5;74.6
67893;DHT22;54688;52.376;16.744;2023-04-07T01:36:45;2.4;75.2
67893;DHT22;54688;52.376;16.744;2023-04-07T01:39:50;2.3;75.8
67893;DHT22;54688;52.376;16.744;2023-04-07T01:42:52;2.3;76.4
67893;DHT22;54688;52.376;16.744;2023-04-07T01:45:57;2.3;77.1
67893;DHT22;54688;52.376;16.744;2023-04-07T01:49:00;2.3;77.5
67893;DHT22;54688;52.376;16.744;2023-04-07T01:52:03;2.2;77.6
67893;DHT22;54688;52.376;16.744;2023-04-07T01:55:06;2.2;77.9
67893;DHT22;54688;52.376;16.744;2023-04-07T01:58:09;2.2;78.3
67893;DHT22;54688;52.376;16.744;2023-04-07T02:01:12;2.2;78.5
67893;DHT22;54688;52.376;16.744;2023-04-07T02:07:16;2.1;78.9
67893;DHT22;54688;52.376;16.744;2023-04-07T02:10:21;2.1;79.2
67893;DHT22;54688;52.376;16.744;2023-04-07T02:13:26;2;79.6
67893;DHT22;54688;52.376;16.744;2023-04-07T02:16:30;2.1;79.7
67893;DHT22;54688;52.376;16.744;2023-04-07T02:19:33;2.1;79.4
67893;DHT22;54688;52.376;16.744;2023-04-07T02:22:35;2;80
67893;DHT22;54688;52.376;16.744;2023-04-07T02:25:38;2;80.1
67893;DHT22;54688;52.376;16.744;2023-04-07T02:28:40;2;79.2
67893;DHT22;54688;52.376;16.744;2023-04-07T02:31:42;2;80.2
67893;DHT22;54688;52.376;16.744;2023-04-07T02:34:44;2;80.2
67893;DHT22;54688;52.376;16.744;2023-04-07T02:40:46;2;80.7
67893;DHT22;54688;52.376;16.744;2023-04-07T02:43:49;1.9;80.9
67893;DHT22;54688;52.376;16.744;2023-04-07T02:46:51;1.9;81
67893;DHT22;54688;52.376;16.744;2023-04-07T02:49:53;1.9;81.2
67893;DHT22;54688;52.376;16.744;2023-04-07T02:52:56;1.9;81.2
67893;DHT22;54688;52.376;16.744;2023-04-07T02:55:58;1.9;81
67893;DHT22;54688;52.376;16.744;2023-04-07T02:59:01;1.9;81
67893;DHT22;54688;52.376;16.744;2023-04-07T03:02:02;1.9;81.3
67893;DHT22;54688;52.376;16.744;2023-04-07T03:05:04;1.8;81.4
67893;DHT22;54688;52.376;16.744;2023-04-07T03:08:07;1.8;81.7
67893;DHT22;54688;52.376;16.744;2023-04-07T03:11:09;1.8;81.8
67893;DHT22;54688;52.376;16.744;2023-04-07T03:14:11;1.8;82
67893;DHT22;54688;52.376;16.744;2023-04-07T03:17:14;1.7;82
67893;DHT22;54688;52.376;16.744;2023-04-07T03:20:16;1.7;82.2
67893;DHT22;54688;52.376;16.744;2023-04-07T03:23:18;1.8;82.6
67893;DHT22;54688;52.376;16.744;2023-04-07T03:26:21;1.8;82.7
67893;DHT22;54688;52.376;16.744;2023-04-07T03:29:23;1.7;82.8
67893;DHT22;54688;52.376;16.744;2023-04-07T03:32:25;1.7;82.8
67893;DHT22;54688;52.376;16.744;2023-04-07T03:35:27;1.7;82.9
67893;DHT22;54688;52.376;16.744;2023-04-07T03:38:30;1.7;82.9
67893;DHT22;54688;52.376;16.744;2023-04-07T03:41:32;1.7;83.1
67893;DHT22;54688;52.376;16.744;2023-04-07T03:44:34;1.7;83.1
67893;DHT22;54688;52.376;16.744;2023-04-07T03:47:36;1.7;83.4
67893;DHT22;54688;52.376;16.744;2023-04-07T03:53:38;1.7;83.5
67893;DHT22;54688;52.376;16.744;2023-04-07T03:56:40;1.6;83.4
67893;DHT22;54688;52.376;16.744;2023-04-07T03:59:42;1.6;83.6
67893;DHT22;54688;52.376;16.744;2023-04-07T04:02:45;1.6;83.8
67893;DHT22;54688;52.376;16.744;2023-04-07T04:05:47;1.6;84
67893;DHT22;54688;52.376;16.744;2023-04-07T04:08:50;1.6;84
67893;DHT22;54688;52.376;16.744;2023-04-07T04:11:51;1.6;84.3
67893;DHT22;54688;52.376;16.744;2023-04-07T04:14:53;1.6;84.6
67893;DHT22;54688;52.376;16.744;2023-04-07T04:17:55;1.6;84.6
67893;DHT22;54688;52.376;16.744;2023-04-07T04:20:57;1.6;84.7
67893;DHT22;54688;52.376;16.744;2023-04-07T04:23:59;1.6;84.7
67893;DHT22;54688;52.376;16.744;2023-04-07T04:27:01;1.6;85
67893;DHT22;54688;52.376;16.744;2023-04-07T04:30:06;1.6;85.1
67893;DHT22;54688;52.376;16.744;2023-04-07T04:33:09;1.6;85.3
67893;DHT22;54688;52.376;16.744;2023-04-07T04:36:11;1.7;85.3
67893;DHT22;54688;52.376;16.744;2023-04-07T04:39:13;1.7;85.3
67893;DHT22;54688;52.376;16.744;2023-04-07T04:42:16;1.7;85.3
67893;DHT22;54688;52.376;16.744;2023-04-07T04:45:18;1.7;85.3
67893;DHT22;54688;52.376;16.744;2023-04-07T04:48:21;1.7;85.3
67893;DHT22;54688;52.376;16.744;2023-04-07T04:51:23;1.7;85.3
67893;DHT22;54688;52.376;16.744;2023-04-07T04:54:25;1.7;85.3
67893;DHT22;54688;52.376;16.744;2023-04-07T04:57:27;1.7;85.2
67893;DHT22;54688;52.376;16.744;2023-04-07T05:00:29;1.8;85.5
67893;DHT22;54688;52.376;16.744;2023-04-07T05:03:31;1.8;85.4
67893;DHT22;54688;52.376;16.744;2023-04-07T05:06:33;1.8;85.4
67893;DHT22;54688;52.376;16.744;2023-04-07T05:09:36;1.8;85.4
67893;DHT22;54688;52.376;16.744;2023-04-07T05:12:38;1.9;85.3
67893;DHT22;54688;52.376;16.744;2023-04-07T05:15:41;1.9;85
67893;DHT22;54688;52.376;16.744;2023-04-07T05:18:43;1.9;85.2
67893;DHT22;54688;52.376;16.744;2023-04-07T05:21:45;1.9;85.3
67893;DHT22;54688;52.376;16.744;2023-04-07T05:24:47;1.9;85.5
67893;DHT22;54688;52.376;16.744;2023-04-07T05:27:49;1.9;85.5
67893;DHT22;54688;52.376;16.744;2023-04-07T05:30:51;1.9;85.5
67893;DHT22;54688;52.376;16.744;2023-04-07T05:33:54;2;85.6
67893;DHT22;54688;52.376;16.744;2023-04-07T05:36:56;2;85.6
67893;DHT22;54688;52.376;16.744;2023-04-07T05:39:59;2;85.7
67893;DHT22;54688;52.376;16.744;2023-04-07T05:46:01;2.1;85.7
67893;DHT22;54688;52.376;16.744;2023-04-07T05:49:03;2.2;85.7
67893;DHT22;54688;52.376;16.744;2023-04-07T05:52:05;2.2;85.8
67893;DHT22;54688;52.376;16.744;2023-04-07T05:55:07;2.2;85.6
67893;DHT22;54688;52.376;16.744;2023-04-07T05:58:09;2.2;85.6
67893;DHT22;54688;52.376;16.744;2023-04-07T06:01:12;2.3;85.6
67893;DHT22;54688;52.376;16.744;2023-04-07T06:04:14;2.3;85.8
67893;DHT22;54688;52.376;16.744;2023-04-07T06:07:16;2.3;85.7
67893;DHT22;54688;52.376;16.744;2023-04-07T06:10:19;2.4;85.7
67893;DHT22;54688;52.376;16.744;2023-04-07T06:13:21;2.3;85.6
67893;DHT22;54688;52.376;16.744;2023-04-07T06:16:24;2.3;85.4
67893;DHT22;54688;52.376;16.744;2023-04-07T06:19:26;2.4;85.3
67893;DHT22;54688;52.376;16.744;2023-04-07T06:22:29;2.4;85.4
67893;DHT22;54688;52.376;16.744;2023-04-07T06:25:32;2.4;85.3
67893;DHT22;54688;52.376;16.744;2023-04-07T06:28:34;2.4;85.2
67893;DHT22;54688;52.376;16.744;2023-04-07T06:31:36;2.4;85.2
67893;DHT22;54688;52.376;16.744;2023-04-07T06:34:38;2.4;85.2
67893;DHT22;54688;52.376;16.744;2023-04-07T06:37:41;2.4;85.4
67893;DHT22;54688;52.376;16.744;2023-04-07T06:40:43;2.4;85.3
67893;DHT22;54688;52.376;16.744;2023-04-07T06:43:45;2.4;85.5
67893;DHT22;54688;52.376;16.744;2023-04-07T06:46:48;2.4;85.3
67893;DHT22;54688;52.376;16.744;2023-04-07T06:49:50;2.5;85.4
67893;DHT22;54688;52.376;16.744;2023-04-07T06:52:52;2.5;85.6
67893;DHT22;54688;52.376;16.744;2023-04-07T06:56:01;2.5;85.2
67893;DHT22;54688;52.376;16.744;2023-04-07T06:59:04;2.5;85.3
67893;DHT22;54688;52.376;16.744;2023-04-07T07:02:06;2.6;85.6
67893;DHT22;54688;52.376;16.744;2023-04-07T07:08:06;2.6;85.8
67893;DHT22;54688;52.376;16.744;2023-04-07T07:11:08;2.7;85.6
67893;DHT22;54688;52.376;16.744;2023-04-07T07:14:10;2.7;85.7
67893;DHT22;54688;52.376;16.744;2023-04-07T07:17:13;2.7;85.8
67893;DHT22;54688;52.376;16.744;2023-04-07T07:20:15;2.7;85.7
67893;DHT22;54688;52.376;16.744;2023-04-07T07:23:17;2.7;86
67893;DHT22;54688;52.376;16.744;2023-04-07T07:26:19;2.8;86.1
67893;DHT22;54688;52.376;16.744;2023-04-07T07:29:22;2.8;85.9
67893;DHT22;54688;52.376;16.744;2023-04-07T07:32:24;2.8;86
67893;DHT22;54688;52.376;16.744;2023-04-07T07:35:26;2.8;85.9
67893;DHT22;54688;52.376;16.744;2023-04-07T07:38:28;2.9;85.9
67893;DHT22;54688;52.376;16.744;2023-04-07T07:41:30;2.8;85.8
67893;DHT22;54688;52.376;16.744;2023-04-07T07:44:32;2.9;85.7
67893;DHT22;54688;52.376;16.744;2023-04-07T07:47:34;2.9;85.6
67893;DHT22;54688;52.376;16.744;2023-04-07T07:50:36;2.9;85.7
67893;DHT22;54688;52.376;16.744;2023-04-07T07:53:38;2.9;86.1
67893;DHT22;54688;52.376;16.744;2023-04-07T07:56:40;3;85.6
67893;DHT22;54688;52.376;16.744;2023-04-07T07:59:43;3;85.6
67893;DHT22;54688;52.376;16.744;2023-04-07T08:02:45;3;85.8
67893;DHT22;54688;52.376;16.744;2023-04-07T08:05:48;3;85.8
67893;DHT22;54688;52.376;16.744;2023-04-07T08:08:50;3;85.6
67893;DHT22;54688;52.376;16.744;2023-04-07T08:11:52;3;85.7
67893;DHT22;54688;52.376;16.744;2023-04-07T08:14:55;3.1;85.8
67893;DHT22;54688;52.376;16.744;2023-04-07T08:23:56;3.2;85.7
67893;DHT22;54688;52.376;16.744;2023-04-07T08:26:58;3.2;85.7
67893;DHT22;54688;52.376;16.744;2023-04-07T08:30:01;3.2;85.9
67893;DHT22;54688;52.376;16.744;2023-04-07T08:33:06;3.2;85.6
67893;DHT22;54688;52.376;16.744;2023-04-07T08:36:08;3.2;85.7
67893;DHT22;54688;52.376;16.744;2023-04-07T08:39:11;3.2;85.8
67893;DHT22;54688;52.376;16.744;2023-04-07T08:42:14;3.3;86
67893;DHT22;54688;52.376;16.744;2023-04-07T08:45:17;3.3;85.8
67893;DHT22;54688;52.376;16.744;2023-04-07T08:48:21;3.3;85.8
67893;DHT22;54688;52.376;16.744;2023-04-07T08:51:26;3.3;85.7
67893;DHT22;54688;52.376;16.744;2023-04-07T08:54:28;3.4;85.8
67893;DHT22;54688;52.376;16.744;2023-04-07T08:57:31;3.4;85.8
67893;DHT22;54688;52.376;16.744;2023-04-07T09:00:33;3.5;86
67893;DHT22;54688;52.376;16.744;2023-04-07T09:03:36;3.5;86
67893;DHT22;54688;52.376;16.744;2023-04-07T09:06:39;3.6;85.9
67893;DHT22;54688;52.376;16.744;2023-04-07T09:09:41;3.7;85.9
67893;DHT22;54688;52.376;16.744;2023-04-07T09:15:43;3.7;85.5
67893;DHT22;54688;52.376;16.744;2023-04-07T09:18:46;3.7;85.4
67893;DHT22;54688;52.376;16.744;2023-04-07T09:21:49;3.7;85.2
67893;DHT22;54688;52.376;16.744;2023-04-07T09:24:52;3.8;85.4
67893;DHT22;54688;52.376;16.744;2023-04-07T09:27:55;3.8;85.4
67893;DHT22;54688;52.376;16.744;2023-04-07T09:30:58;3.9;85.4
67893;DHT22;54688;52.376;16.744;2023-04-07T09:34:01;3.9;85.3
67893;DHT22;54688;52.376;16.744;2023-04-07T09:37:06;3.9;85.4
67893;DHT22;54688;52.376;16.744;2023-04-07T09:40:08;3.9;85.3
67893;DHT22;54688;52.376;16.744;2023-04-07T09:43:13;3.9;85.5
67893;DHT22;54688;52.376;16.744;2023-04-07T09:46:16;3.9;85.8
67893;DHT22;54688;52.376;16.744;2023-04-07T09:52:18;3.9;86.1
67893;DHT22;54688;52.376;16.744;2023-04-07T09:55:23;3.9;86.1
67893;DHT22;54688;52.376;16.744;2023-04-07T09:58:25;4;86.4
67893;DHT22;54688;52.376;16.744;2023-04-07T10:01:27;4;86.4
67893;DHT22;54688;52.376;16.744;2023-04-07T10:04:30;4.1;86.3
67893;DHT22;54688;52.376;16.744;2023-04-07T10:07:32;4.1;85.8
67893;DHT22;54688;52.376;16.744;2023-04-07T10:10:35;4.1;86.2
67893;DHT22;54688;52.376;16.744;2023-04-07T10:13:42;4.1;86.5
67893;DHT22;54688;52.376;16.744;2023-04-07T10:16:45;4.2;86.6
67893;DHT22;54688;52.376;16.744;2023-04-07T10:19:48;4.2;86.6
67893;DHT22;54688;52.376;16.744;2023-04-07T10:22:51;4.3;86.5
67893;DHT22;54688;52.376;16.744;2023-04-07T10:25:56;4.3;86.1
67893;DHT22;54688;52.376;16.744;2023-04-07T10:29:01;4.3;85.7
67893;DHT22;54688;52.376;16.744;2023-04-07T10:32:07;4.3;86
67893;DHT22;54688;52.376;16.744;2023-04-07T10:35:09;4.4;86.4
67893;DHT22;54688;52.376;16.744;2023-04-07T10:38:11;4.3;86
67893;DHT22;54688;52.376;16.744;2023-04-07T10:41:45;4.4;86.2
67893;DHT22;54688;52.376;16.744;2023-04-07T10:48:08;4.5;86.4
67893;DHT22;54688;52.376;16.744;2023-04-07T10:51:13;4.5;86.7
67893;DHT22;54688;52.376;16.744;2023-04-07T10:54:16;4.6;86.4
67893;DHT22;54688;52.376;16.744;2023-04-07T10:57:20;4.6;86.1
67893;DHT22;54688;52.376;16.744;2023-04-07T11:00:22;4.6;85.7
67893;DHT22;54688;52.376;16.744;2023-04-07T11:03:24;4.6;86
67893;DHT22;54688;52.376;16.744;2023-04-07T11:06:28;4.6;86
67893;DHT22;54688;52.376;16.744;2023-04-07T11:09:30;4.5;86
67893;DHT22;54688;52.376;16.744;2023-04-07T11:12:32;4.6;86.5
67893;DHT22;54688;52.376;16.744;2023-04-07T11:15:34;4.6;86.5
67893;DHT22;54688;52.376;16.744;2023-04-07T11:18:37;4.6;86.5
67893;DHT22;54688;52.376;16.744;2023-04-07T11:21:40;4.6;86
67893;DHT22;54688;52.376;16.744;2023-04-07T11:24:42;4.6;85.8
67893;DHT22;54688;52.376;16.744;2023-04-07T11:27:43;4.6;85.5
67893;DHT22;54688;52.376;16.744;2023-04-07T11:30:47;4.6;86.5
67893;DHT22;54688;52.376;16.744;2023-04-07T11:33:51;4.6;86.5
67893;DHT22;54688;52.376;16.744;2023-04-07T11:36:54;4.7;86.9
67893;DHT22;54688;52.376;16.744;2023-04-07T11:39:57;4.8;87.2
67893;DHT22;54688;52.376;16.744;2023-04-07T11:43:00;4.8;87.3
67893;DHT22;54688;52.376;16.744;2023-04-07T11:46:02;4.9;86.8
67893;DHT22;54688;52.376;16.744;2023-04-07T11:49:07;5;86.8
67893;DHT22;54688;52.376;16.744;2023-04-07T11:52:10;4.9;85.8
67893;DHT22;54688;52.376;16.744;2023-04-07T11:55:16;4.9;86.1
67893;DHT22;54688;52.376;16.744;2023-04-07T11:58:18;4.9;86.6
67893;DHT22;54688;52.376;16.744;2023-04-07T12:01:21;4.9;86.9
67893;DHT22;54688;52.376;16.744;2023-04-07T12:04:24;4.9;86.3
67893;DHT22;54688;52.376;16.744;2023-04-07T12:07:26;4.8;86.5
67893;DHT22;54688;52.376;16.744;2023-04-07T12:10:29;4.8;86.8
67893;DHT22;54688;52.376;16.744;2023-04-07T12:13:31;4.8;87
67893;DHT22;54688;52.376;16.744;2023-04-07T12:16:36;4.8;87.3
67893;DHT22;54688;52.376;16.744;2023-04-07T12:19:38;4.8;87.4
67893;DHT22;54688;52.376;16.744;2023-04-07T12:22:41;4.8;87.8
67893;DHT22;54688;52.376;16.744;2023-04-07T12:25:43;4.8;87.6
67893;DHT22;54688;52.376;16.744;2023-04-07T12:28:46;4.8;87.6
67893;DHT22;54688;52.376;16.744;2023-04-07T12:31:48;4.8;87.8
67893;DHT22;54688;52.376;16.744;2023-04-07T12:34:50;4.8;87.8
67893;DHT22;54688;52.376;16.744;2023-04-07T12:37:53;4.9;87.7
67893;DHT22;54688;52.376;16.744;2023-04-07T12:40:55;4.9;88.2
67893;DHT22;54688;52.376;16.744;2023-04-07T12:43:59;4.9;88
67893;DHT22;54688;52.376;16.744;2023-04-07T12:47:01;4.9;88.2
67893;DHT22;54688;52.376;16.744;2023-04-07T12:50:03;4.9;88.1
67893;DHT22;54688;52.376;16.744;2023-04-07T12:53:05;5;88.2
67893;DHT22;54688;52.376;16.744;2023-04-07T12:56:07;5;88.2
67893;DHT22;54688;52.376;16.744;2023-04-07T12:59:11;5;87.9
67893;DHT22;54688;52.376;16.744;2023-04-07T13:02:13;5.1;87.6
67893;DHT22;54688;52.376;16.744;2023-04-07T13:05:16;5.1;87.6
67893;DHT22;54688;52.376;16.744;2023-04-07T13:08:18;5.1;87.5
67893;DHT22;54688;52.376;16.744;2023-04-07T13:11:20;5.1;87.4
67893;DHT22;54688;52.376;16.744;2023-04-07T13:14:23;5.1;87.6
67893;DHT22;54688;52.376;16.744;2023-04-07T13:17:26;5.1;87.5
67893;DHT22;54688;52.376;16.744;2023-04-07T13:20:28;5.1;87.5
67893;DHT22;54688;52.376;16.744;2023-04-07T13:23:31;5.2;87.7
67893;DHT22;54688;52.376;16.744;2023-04-07T13:26:33;5.2;87.6
67893;DHT22;54688;52.376;16.744;2023-04-07T13:29:36;5.2;87.8
67893;DHT22;54688;52.376;16.744;2023-04-07T13:32:38;5.3;87.3
67893;DHT22;54688;52.376;16.744;2023-04-07T13:35:41;5.2;86.9
67893;DHT22;54688;52.376;16.744;2023-04-07T13:38:43;5.2;87
67893;DHT22;54688;52.376;16.744;2023-04-07T13:41:45;5.2;87.2
67893;DHT22;54688;52.376;16.744;2023-04-07T13:44:47;5.2;87.1
67893;DHT22;54688;52.376;16.744;2023-04-07T13:47:49;5.2;87.4
67893;DHT22;54688;52.376;16.744;2023-04-07T13:50:52;5.3;87.4
67893;DHT22;54688;52.376;16.744;2023-04-07T13:53:54;5.3;87.3
67893;DHT22;54688;52.376;16.744;2023-04-07T13:56:56;5.3;87.6
67893;DHT22;54688;52.376;16.744;2023-04-07T13:59:58;5.3;87.4
67893;DHT22;54688;52.376;16.744;2023-04-07T14:03:01;5.4;87.5
67893;DHT22;54688;52.376;16.744;2023-04-07T14:06:05;5.4;87.3
67893;DHT22;54688;52.376;16.744;2023-04-07T14:09:07;5.4;87.1
67893;DHT22;54688;52.376;16.744;2023-04-07T14:12:09;5.4;87.2
67893;DHT22;54688;52.376;16.744;2023-04-07T14:15:11;5.5;87.3
67893;DHT22;54688;52.376;16.744;2023-04-07T14:18:13;5.5;87.2
67893;DHT22;54688;52.376;16.744;2023-04-07T14:21:15;5.6;87.1
67893;DHT22;54688;52.376;16.744;2023-04-07T14:24:17;5.6;87.1
67893;DHT22;54688;52.376;16.744;2023-04-07T14:27:20;5.6;87.1
67893;DHT22;54688;52.376;16.744;2023-04-07T14:30:22;5.6;87
67893;DHT22;54688;52.376;16.744;2023-04-07T14:33:24;5.6;87
67893;DHT22;54688;52.376;16.744;2023-04-07T14:36:26;5.6;87.2
67893;DHT22;54688;52.376;16.744;2023-04-07T14:39:29;5.7;87.1
67893;DHT22;54688;52.376;16.744;2023-04-07T14:42:31;5.7;86.9
67893;DHT22;54688;52.376;16.744;2023-04-07T14:45:33;5.7;86.5
67893;DHT22;54688;52.376;16.744;2023-04-07T14:48:35;5.7;86.7
67893;DHT22;54688;52.376;16.744;2023-04-07T14:51:38;5.7;86.8
67893;DHT22;54688;52.376;16.744;2023-04-07T14:54:40;5.7;87.1
67893;DHT22;54688;52.376;16.744;2023-04-07T14:57:42;5.7;87.3
67893;DHT22;54688;52.376;16.744;2023-04-07T15:00:45;5.8;87.5
67893;DHT22;54688;52.376;16.744;2023-04-07T15:03:49;5.8;87.3
67893;DHT22;54688;52.376;16.744;2023-04-07T15:06:51;5.8;87.3
67893;DHT22;54688;52.376;16.744;2023-04-07T15:09:54;5.8;87.1
67893;DHT22;54688;52.376;16.744;2023-04-07T15:12:56;5.8;87.1
67893;DHT22;54688;52.376;16.744;2023-04-07T15:16:04;5.8;87.3
67893;DHT22;54688;52.376;16.744;2023-04-07T15:19:07;5.9;87.3
67893;DHT22;54688;52.376;16.744;2023-04-07T15:22:09;5.9;87.2
67893;DHT22;54688;52.376;16.744;2023-04-07T15:25:11;5.9;87
67893;DHT22;54688;52.376;16.744;2023-04-07T15:28:14;5.9;87
67893;DHT22;54688;52.376;16.744;2023-04-07T15:31:16;5.9;87.2
67893;DHT22;54688;52.376;16.744;2023-04-07T15:34:19;5.9;87.1
67893;DHT22;54688;52.376;16.744;2023-04-07T15:37:23;5.8;87.7
67893;DHT22;54688;52.376;16.744;2023-04-07T15:40:25;5.8;87.2
67893;DHT22;54688;52.376;16.744;2023-04-07T15:43:27;5.9;87.3
67893;DHT22;54688;52.376;16.744;2023-04-07T15:46:30;5.9;87.5
67893;DHT22;54688;52.376;16.744;2023-04-07T15:49:32;5.9;87.5
67893;DHT22;54688;52.376;16.744;2023-04-07T15:52:34;5.9;87.5
67893;DHT22;54688;52.376;16.744;2023-04-07T15:55:37;5.9;87.5
67893;DHT22;54688;52.376;16.744;2023-04-07T15:58:39;5.9;87.5
67893;DHT22;54688;52.376;16.744;2023-04-07T16:01:41;6;87.4
67893;DHT22;54688;52.376;16.744;2023-04-07T16:04:44;6;87.4
67893;DHT22;54688;52.376;16.744;2023-04-07T16:07:46;6;87.5
67893;DHT22;54688;52.376;16.744;2023-04-07T16:10:49;6;87.4
67893;DHT22;54688;52.376;16.744;2023-04-07T16:13:52;6;87.4
67893;DHT22;54688;52.376;16.744;2023-04-07T16:16:54;6.1;87.4
67893;DHT22;54688;52.376;16.744;2023-04-07T16:19:57;6.1;87.5
67893;DHT22;54688;52.376;16.744;2023-04-07T16:22:59;6.1;87.4
67893;DHT22;54688;52.376;16.744;2023-04-07T16:26:02;6;87.3
67893;DHT22;54688;52.376;16.744;2023-04-07T16:29:04;6.1;87.6
67893;DHT22;54688;52.376;16.744;2023-04-07T16:32:07;6.1;87.6
67893;DHT22;54688;52.376;16.744;2023-04-07T16:35:09;6.1;87.6
67893;DHT22;54688;52.376;16.744;2023-04-07T16:38:12;6.2;87.6
67893;DHT22;54688;52.376;16.744;2023-04-07T16:41:14;6.2;87.6
67893;DHT22;54688;52.376;16.744;2023-04-07T16:44:16;6.2;87.4
67893;DHT22;54688;52.376;16.744;2023-04-07T16:47:18;6.2;87.5
67893;DHT22;54688;52.376;16.744;2023-04-07T16:50:20;6.2;87.5
67893;DHT22;54688;52.376;16.744;2023-04-07T16:53:22;6.2;87.3
67893;DHT22;54688;52.376;16.744;2023-04-07T16:56:24;6.2;87.3
67893;DHT22;54688;52.376;16.744;2023-04-07T16:59:27;6.2;87.4
67893;DHT22;54688;52.376;16.744;2023-04-07T17:02:31;6.2;87.3
67893;DHT22;54688;52.376;16.744;2023-04-07T17:05:33;6.3;87.4
67893;DHT22;54688;52.376;16.744;2023-04-07T17:08:35;6.3;87.3
67893;DHT22;54688;52.376;16.744;2023-04-07T17:11:40;6.3;87.3
67893;DHT22;54688;52.376;16.744;2023-04-07T17:14:42;6.3;87.3
67893;DHT22;54688;52.376;16.744;2023-04-07T17:17:44;6.3;87.4
67893;DHT22;54688;52.376;16.744;2023-04-07T17:20:47;6.4;87.5
67893;DHT22;54688;52.376;16.744;2023-04-07T17:23:50;6.4;87.3
67893;DHT22;54688;52.376;16.744;2023-04-07T17:26:52;6.4;87.3
67893;DHT22;54688;52.376;16.744;2023-04-07T17:29:55;6.4;87.3
67893;DHT22;54688;52.376;16.744;2023-04-07T17:32:57;6.5;87.3
67893;DHT22;54688;52.376;16.744;2023-04-07T17:36:00;6.5;87.2
67893;DHT22;54688;52.376;16.744;2023-04-07T17:39:02;6.5;87.1
67893;DHT22;54688;52.376;16.744;2023-04-07T17:42:04;6.5;87.2
67893;DHT22;54688;52.376;16.744;2023-04-07T17:45:07;6.5;87.3
67893;DHT22;54688;52.376;16.744;2023-04-07T17:48:09;6.5;87.3
67893;DHT22;54688;52.376;16.744;2023-04-07T17:51:11;6.4;87.5
67893;DHT22;54688;52.376;16.744;2023-04-07T17:54:13;6.3;87.9
67893;DHT22;54688;52.376;16.744;2023-04-07T17:57:17;6.4;88
67893;DHT22;54688;52.376;16.744;2023-04-07T18:00:20;6.4;88.1
67893;DHT22;54688;52.376;16.744;2023-04-07T18:03:22;6.4;88.2
67893;DHT22;54688;52.376;16.744;2023-04-07T18:09:22;6.4;88.1
67893;DHT22;54688;52.376;16.744;2023-04-07T18:12:25;6.4;88.1
67893;DHT22;54688;52.376;16.744;2023-04-07T18:15:27;6.4;88.2
67893;DHT22;54688;52.376;16.744;2023-04-07T18:18:30;6.4;88.2
67893;DHT22;54688;52.376;16.744;2023-04-07T18:21:32;6.4;88.2
67893;DHT22;54688;52.376;16.744;2023-04-07T18:24:34;6.4;88.3
67893;DHT22;54688;52.376;16.744;2023-04-07T18:27:36;6.4;88.4
67893;DHT22;54688;52.376;16.744;2023-04-07T18:30:39;6.4;88.6
67893;DHT22;54688;52.376;16.744;2023-04-07T18:33:41;6.4;88.5
67893;DHT22;54688;52.376;16.744;2023-04-07T18:36:43;6.4;88.6
67893;DHT22;54688;52.376;16.744;2023-04-07T18:39:45;6.4;88.6
67893;DHT22;54688;52.376;16.744;2023-04-07T18:42:50;6.5;88.6
67893;DHT22;54688;52.376;16.744;2023-04-07T18:45:52;6.5;88.5
67893;DHT22;54688;52.376;16.744;2023-04-07T18:48:54;6.5;88.4
67893;DHT22;54688;52.376;16.744;2023-04-07T18:51:57;6.5;88.4
67893;DHT22;54688;52.376;16.744;2023-04-07T18:54:59;6.6;88.4
67893;DHT22;54688;52.376;16.744;2023-04-07T18:58:01;6.6;88.4
67893;DHT22;54688;52.376;16.744;2023-04-07T19:01:04;6.6;88.5
67893;DHT22;54688;52.376;16.744;2023-04-07T19:04:06;6.6;88.4
67893;DHT22;54688;52.376;16.744;2023-04-07T19:07:08;6.6;88.6
67893;DHT22;54688;52.376;16.744;2023-04-07T19:10:10;6.7;88.6
67893;DHT22;54688;52.376;16.744;2023-04-07T19:13:12;6.7;88.6
67893;DHT22;54688;52.376;16.744;2023-04-07T19:16:14;6.7;88.5
67893;DHT22;54688;52.376;16.744;2023-04-07T19:19:17;6.7;88.7
67893;DHT22;54688;52.376;16.744;2023-04-07T19:22:19;6.8;88.7
67893;DHT22;54688;52.376;16.744;2023-04-07T19:25:21;6.8;88.5
67893;DHT22;54688;52.376;16.744;2023-04-07T19:28:23;6.9;88.6
67893;DHT22;54688;52.376;16.744;2023-04-07T19:31:26;6.9;88.5
67893;DHT22;54688;52.376;16.744;2023-04-07T19:34:28;6.9;88.2
67893;DHT22;54688;52.376;16.744;2023-04-07T19:37:31;6.9;88.2
67893;DHT22;54688;52.376;16.744;2023-04-07T19:40:34;6.9;88.9
67893;DHT22;54688;52.376;16.744;2023-04-07T19:43:36;6.9;88.2
67893;DHT22;54688;52.376;16.744;2023-04-07T19:46:39;6.9;88.4
67893;DHT22;54688;52.376;16.744;2023-04-07T19:49:41;6.9;88.4
67893;DHT22;54688;52.376;16.744;2023-04-07T19:52:44;6.8;88.3
67893;DHT22;54688;52.376;16.744;2023-04-07T19:55:46;6.9;88.5
67893;DHT22;54688;52.376;16.744;2023-04-07T19:58:48;6.8;87.7
67893;DHT22;54688;52.376;16.744;2023-04-07T20:01:51;6.9;88.6
67893;DHT22;54688;52.376;16.744;2023-04-07T20:04:53;6.9;88.6
67893;DHT22;54688;52.376;16.744;2023-04-07T20:07:56;6.9;88.7
67893;DHT22;54688;52.376;16.744;2023-04-07T20:10:58;6.9;88.7
67893;DHT22;54688;52.376;16.744;2023-04-07T20:14:00;7;88.8
67893;DHT22;54688;52.376;16.744;2023-04-07T20:17:02;7;88.9
67893;DHT22;54688;52.376;16.744;2023-04-07T20:20:05;7.1;89
67893;DHT22;54688;52.376;16.744;2023-04-07T20:23:08;7.1;89
67893;DHT22;54688;52.376;16.744;2023-04-07T20:26:10;7.2;89
67893;DHT22;54688;52.376;16.744;2023-04-07T20:29:12;7.3;89
67893;DHT22;54688;52.376;16.744;2023-04-07T20:32:14;7.3;88.9